sensor_id;sensor_type;location;lat;lon;timestamp;temperature;humidity
45012;DHT22;63444;48.148;11.542;2023-04-28T00:00:43;11.20;99.90
45012;DHT22;63444;48.148;11.542;2023-04-28T00:03:11;11.20;99.90
45012;DHT22;63444;48.148;11.542;2023-04-28T00:05:37;11.20;99.90
45012;DHT22;63444;48.148;11.542;2023-04-28T00:08:03;11.20;99.90
45012;DHT22;63444;48.148;11.542;2023-04-28T00:10:29;11.20;99.90
45012;DHT22;63444;48.148;11.542;2023-04-28T00:12:55;11.20;99.90
45012;DHT22;63444;48.148;11.542;2023-04-28T00:15:21;11.20;99.90
45012;DHT22;63444;48.148;11.542;2023-04-28T00:17:46;11.20;99.90
45012;DHT22;63444;48.148;11.542;2023-04-28T00:20:12;11.20;99.90
45012;DHT22;63444;48.148;11.542;2023-04-28T00:22:38;11.20;99.90
45012;DHT22;63444;48.148;11.542;2023-04-28T00:25:04;11.10;99.90
45012;DHT22;63444;48.148;11.542;2023-04-28T00:27:32;11.10;99.90
45012;DHT22;63444;48.148;11.542;2023-04-28T00:29:57;11.20;99.90
45012;DHT22;63444;48.148;11.542;2023-04-28T00:32:23;11.30;99.90
45012;DHT22;63444;48.148;11.542;2023-04-28T00:34:48;11.30;99.90
45012;DHT22;63444;48.148;11.542;2023-04-28T00:37:14;11.30;99.90
45012;DHT22;63444;48.148;11.542;2023-04-28T00:39:40;11.30;99.90
45012;DHT22;63444;48.148;11.542;2023-04-28T00:42:06;11.30;99.90
45012;DHT22;63444;48.148;11.542;2023-04-28T00:44:32;11.30;99.90
45012;DHT22;63444;48.148;11.542;2023-04-28T00:46:58;11.30;99.90
45012;DHT22;63444;48.148;11.542;2023-04-28T00:49:27;11.50;99.90
45012;DHT22;63444;48.148;11.542;2023-04-28T00:51:52;11.30;99.90
45012;DHT22;63444;48.148;11.542;2023-04-28T00:54:18;11.30;99.90
45012;DHT22;63444;48.148;11.542;2023-04-28T00:56:44;11.30;99.90
45012;DHT22;63444;48.148;11.542;2023-04-28T00:59:09;11.30;99.90
45012;DHT22;63444;48.148;11.542;2023-04-28T01:01:35;11.40;99.90
45012;DHT22;63444;48.148;11.542;2023-04-28T01:04:02;11.30;99.90
45012;DHT22;63444;48.148;11.542;2023-04-28T01:06:27;11.30;99.90
45012;DHT22;63444;48.148;11.542;2023-04-28T01:08:54;11.50;99.90
45012;DHT22;63444;48.148;11.542;2023-04-28T01:11:20;11.20;99.90
45012;DHT22;63444;48.148;11.542;2023-04-28T01:13:45;11.20;99.90
45012;DHT22;63444;48.148;11.542;2023-04-28T01:16:11;11.20;99.90
45012;DHT22;63444;48.148;11.542;2023-04-28T01:18:37;11.10;99.90
45012;DHT22;63444;48.148;11.542;2023-04-28T01:21:07;11.20;99.90
45012;DHT22;63444;48.148;11.542;2023-04-28T01:23:32;11.20;99.90
45012;DHT22;63444;48.148;11.542;2023-04-28T01:25:58;11.20;99.90
45012;DHT22;63444;48.148;11.542;2023-04-28T01:28:24;11.20;99.90
45012;DHT22;63444;48.148;11.542;2023-04-28T01:30:49;11.10;99.90
45012;DHT22;63444;48.148;11.542;2023-04-28T01:33:15;11.10;99.90
45012;DHT22;63444;48.148;11.542;2023-04-28T01:35:41;11.10;99.90
45012;DHT22;63444;48.148;11.542;2023-04-28T01:38:06;11.10;99.90
45012;DHT22;63444;48.148;11.542;2023-04-28T01:40:32;11.10;99.90
45012;DHT22;63444;48.148;11.542;2023-04-28T01:42:58;11.10;99.90
45012;DHT22;63444;48.148;11.542;2023-04-28T01:45:23;11.00;99.90
45012;DHT22;63444;48.148;11.542;2023-04-28T01:47:49;11.10;99.90
45012;DHT22;63444;48.148;11.542;2023-04-28T01:50:14;11.10;99.90
45012;DHT22;63444;48.148;11.542;2023-04-28T01:52:40;11.10;99.90
45012;DHT22;63444;48.148;11.542;2023-04-28T01:55:06;11.10;99.90
45012;DHT22;63444;48.148;11.542;2023-04-28T01:57:32;11.10;99.90
45012;DHT22;63444;48.148;11.542;2023-04-28T01:59:59;11.10;99.90
45012;DHT22;63444;48.148;11.542;2023-04-28T02:02:25;11.10;99.90
45012;DHT22;63444;48.148;11.542;2023-04-28T02:04:51;11.00;99.90
45012;DHT22;63444;48.148;11.542;2023-04-28T02:07:16;11.10;99.90
45012;DHT22;63444;48.148;11.542;2023-04-28T02:09:42;11.10;99.90
45012;DHT22;63444;48.148;11.542;2023-04-28T02:12:07;11.10;99.90
45012;DHT22;63444;48.148;11.542;2023-04-28T02:14:33;11.10;99.90
45012;DHT22;63444;48.148;11.542;2023-04-28T02:16:58;11.10;99.90
45012;DHT22;63444;48.148;11.542;2023-04-28T02:19:24;11.10;99.90
45012;DHT22;63444;48.148;11.542;2023-04-28T02:21:49;11.10;99.90
45012;DHT22;63444;48.148;11.542;2023-04-28T02:24:15;11.20;99.90
45012;DHT22;63444;48.148;11.542;2023-04-28T02:26:41;11.20;99.90
45012;DHT22;63444;48.148;11.542;2023-04-28T02:29:07;11.20;99.90
45012;DHT22;63444;48.148;11.542;2023-04-28T02:31:32;11.20;99.90
45012;DHT22;63444;48.148;11.542;2023-04-28T02:33:58;11.30;99.90
45012;DHT22;63444;48.148;11.542;2023-04-28T02:36:23;11.20;99.90
45012;DHT22;63444;48.148;11.542;2023-04-28T02:38:49;11.20;99.90
45012;DHT22;63444;48.148;11.542;2023-04-28T02:41:15;11.30;99.90
45012;DHT22;63444;48.148;11.542;2023-04-28T02:43:40;11.20;99.90
45012;DHT22;63444;48.148;11.542;2023-04-28T02:46:06;11.20;99.90
45012;DHT22;63444;48.148;11.542;2023-04-28T02:48:32;11.20;99.90
45012;DHT22;63444;48.148;11.542;2023-04-28T02:51:00;11.20;99.90
45012;DHT22;63444;48.148;11.542;2023-04-28T02:53:26;11.10;99.90
45012;DHT22;63444;48.148;11.542;2023-04-28T02:55:52;11.10;99.90
45012;DHT22;63444;48.148;11.542;2023-04-28T02:58:18;11.10;99.90
45012;DHT22;63444;48.148;11.542;2023-04-28T03:00:44;11.20;99.90
45012;DHT22;63444;48.148;11.542;2023-04-28T03:03:10;11.20;99.90
45012;DHT22;63444;48.148;11.542;2023-04-28T03:05:35;11.10;99.90
45012;DHT22;63444;48.148;11.542;2023-04-28T03:08:01;11.10;99.90
45012;DHT22;63444;48.148;11.542;2023-04-28T03:10:26;11.10;99.90
45012;DHT22;63444;48.148;11.542;2023-04-28T03:12:52;11.10;99.90
45012;DHT22;63444;48.148;11.542;2023-04-28T03:15:18;11.10;99.90
45012;DHT22;63444;48.148;11.542;2023-04-28T03:17:43;11.10;99.90
45012;DHT22;63444;48.148;11.542;2023-04-28T03:20:09;11.10;99.90
45012;DHT22;63444;48.148;11.542;2023-04-28T03:22:35;11.10;99.90
45012;DHT22;63444;48.148;11.542;2023-04-28T03:25:01;11.20;99.90
45012;DHT22;63444;48.148;11.542;2023-04-28T03:27:27;11.00;99.90
45012;DHT22;63444;48.148;11.542;2023-04-28T03:29:53;11.00;99.90
45012;DHT22;63444;48.148;11.542;2023-04-28T03:32:18;11.00;99.90
45012;DHT22;63444;48.148;11.542;2023-04-28T03:34:44;11.00;99.90
45012;DHT22;63444;48.148;11.542;2023-04-28T03:37:09;11.00;99.90
45012;DHT22;63444;48.148;11.542;2023-04-28T03:39:35;11.00;99.90
45012;DHT22;63444;48.148;11.542;2023-04-28T03:42:01;11.00;99.90
45012;DHT22;63444;48.148;11.542;2023-04-28T03:44:26;10.90;99.90
45012;DHT22;63444;48.148;11.542;2023-04-28T03:46:52;10.80;99.90
45012;DHT22;63444;48.148;11.542;2023-04-28T03:49:18;10.80;99.90
45012;DHT22;63444;48.148;11.542;2023-04-28T03:51:44;10.80;99.90
45012;DHT22;63444;48.148;11.542;2023-04-28T03:54:09;10.80;99.90
45012;DHT22;63444;48.148;11.542;2023-04-28T03:56:35;10.90;99.90
45012;DHT22;63444;48.148;11.542;2023-04-28T03:59:01;10.90;99.90
45012;DHT22;63444;48.148;11.542;2023-04-28T04:01:26;11.00;99.90
45012;DHT22;63444;48.148;11.542;2023-04-28T04:03:52;11.00;99.90
45012;DHT22;63444;48.148;11.542;2023-04-28T04:06:18;11.00;99.90
45012;DHT22;63444;48.148;11.542;2023-04-28T04:08:45;11.00;99.90
45012;DHT22;63444;48.148;11.542;2023-04-28T04:11:10;10.90;99.90
45012;DHT22;63444;48.148;11.542;2023-04-28T04:13:36;11.00;99.90
45012;DHT22;63444;48.148;11.542;2023-04-28T04:16:01;11.00;99.90
45012;DHT22;63444;48.148;11.542;2023-04-28T04:18:27;11.00;99.90
45012;DHT22;63444;48.148;11.542;2023-04-28T04:20:53;11.10;99.90
45012;DHT22;63444;48.148;11.542;2023-04-28T04:23:20;11.10;99.90
45012;DHT22;63444;48.148;11.542;2023-04-28T04:25:46;11.10;99.90
45012;DHT22;63444;48.148;11.542;2023-04-28T04:28:12;11.10;99.90
45012;DHT22;63444;48.148;11.542;2023-04-28T04:30:37;11.20;99.90
45012;DHT22;63444;48.148;11.542;2023-04-28T04:33:03;11.20;99.90
45012;DHT22;63444;48.148;11.542;2023-04-28T04:35:29;11.20;99.90
45012;DHT22;63444;48.148;11.542;2023-04-28T04:37:55;11.30;99.90
45012;DHT22;63444;48.148;11.542;2023-04-28T04:40:20;11.20;99.90
45012;DHT22;63444;48.148;11.542;2023-04-28T04:42:46;11.30;99.90
45012;DHT22;63444;48.148;11.542;2023-04-28T04:45:12;11.30;99.90
45012;DHT22;63444;48.148;11.542;2023-04-28T04:47:37;11.40;99.90
45012;DHT22;63444;48.148;11.542;2023-04-28T04:50:03;11.40;99.90
45012;DHT22;63444;48.148;11.542;2023-04-28T04:52:29;11.40;99.90
45012;DHT22;63444;48.148;11.542;2023-04-28T04:54:55;11.40;99.90
45012;DHT22;63444;48.148;11.542;2023-04-28T04:57:21;11.40;99.90
45012;DHT22;63444;48.148;11.542;2023-04-28T04:59:47;11.50;99.90
45012;DHT22;63444;48.148;11.542;2023-04-28T05:02:12;11.50;99.90
45012;DHT22;63444;48.148;11.542;2023-04-28T05:04:38;11.50;99.90
45012;DHT22;63444;48.148;11.542;2023-04-28T05:07:04;11.50;99.90
45012;DHT22;63444;48.148;11.542;2023-04-28T05:09:29;11.50;99.90
45012;DHT22;63444;48.148;11.542;2023-04-28T05:11:56;11.50;99.90
45012;DHT22;63444;48.148;11.542;2023-04-28T05:14:22;11.50;99.90
45012;DHT22;63444;48.148;11.542;2023-04-28T05:16:48;11.50;99.90
45012;DHT22;63444;48.148;11.542;2023-04-28T05:19:14;11.70;99.90
45012;DHT22;63444;48.148;11.542;2023-04-28T05:21:39;11.50;99.90
45012;DHT22;63444;48.148;11.542;2023-04-28T05:24:05;11.50;99.90
45012;DHT22;63444;48.148;11.542;2023-04-28T05:26:31;11.50;99.90
45012;DHT22;63444;48.148;11.542;2023-04-28T05:28:57;11.50;99.90
45012;DHT22;63444;48.148;11.542;2023-04-28T05:31:22;11.50;99.90
45012;DHT22;63444;48.148;11.542;2023-04-28T05:33:48;11.50;99.90
45012;DHT22;63444;48.148;11.542;2023-04-28T05:36:13;11.50;99.90
45012;DHT22;63444;48.148;11.542;2023-04-28T05:38:42;11.50;99.90
45012;DHT22;63444;48.148;11.542;2023-04-28T05:41:08;11.50;99.90
45012;DHT22;63444;48.148;11.542;2023-04-28T05:43:34;11.50;99.90
45012;DHT22;63444;48.148;11.542;2023-04-28T05:46:00;11.40;99.90
45012;DHT22;63444;48.148;11.542;2023-04-28T05:48:26;11.50;99.90
45012;DHT22;63444;48.148;11.542;2023-04-28T05:50:51;11.40;99.90
45012;DHT22;63444;48.148;11.542;2023-04-28T05:53:17;11.40;99.90
45012;DHT22;63444;48.148;11.542;2023-04-28T05:55:43;11.40;99.90
45012;DHT22;63444;48.148;11.542;2023-04-28T05:58:08;11.40;99.90
45012;DHT22;63444;48.148;11.542;2023-04-28T06:00:34;11.50;99.90
45012;DHT22;63444;48.148;11.542;2023-04-28T06:03:00;11.40;99.90
45012;DHT22;63444;48.148;11.542;2023-04-28T06:05:26;11.30;99.90
45012;DHT22;63444;48.148;11.542;2023-04-28T06:07:51;11.30;99.90
45012;DHT22;63444;48.148;11.542;2023-04-28T06:10:18;11.30;99.90
45012;DHT22;63444;48.148;11.542;2023-04-28T06:12:44;11.30;99.90
45012;DHT22;63444;48.148;11.542;2023-04-28T06:15:10;11.30;99.90
45012;DHT22;63444;48.148;11.542;2023-04-28T06:17:37;11.20;99.90
45012;DHT22;63444;48.148;11.542;2023-04-28T06:20:03;11.20;99.90
45012;DHT22;63444;48.148;11.542;2023-04-28T06:22:29;11.30;99.90
45012;DHT22;63444;48.148;11.542;2023-04-28T06:24:55;11.30;99.90
45012;DHT22;63444;48.148;11.542;2023-04-28T06:27:21;11.30;99.90
45012;DHT22;63444;48.148;11.542;2023-04-28T06:29:46;11.30;99.90
45012;DHT22;63444;48.148;11.542;2023-04-28T06:32:12;11.40;99.90
45012;DHT22;63444;48.148;11.542;2023-04-28T06:34:37;11.30;99.90
45012;DHT22;63444;48.148;11.542;2023-04-28T06:37:03;11.40;99.90
45012;DHT22;63444;48.148;11.542;2023-04-28T06:39:29;11.50;99.90
45012;DHT22;63444;48.148;11.542;2023-04-28T06:41:55;11.40;99.90
45012;DHT22;63444;48.148;11.542;2023-04-28T06:44:20;11.60;99.90
45012;DHT22;63444;48.148;11.542;2023-04-28T06:46:46;11.50;99.90
45012;DHT22;63444;48.148;11.542;2023-04-28T06:49:12;11.50;99.90
45012;DHT22;63444;48.148;11.542;2023-04-28T06:51:37;11.60;99.90
45012;DHT22;63444;48.148;11.542;2023-04-28T06:54:03;11.60;99.90
45012;DHT22;63444;48.148;11.542;2023-04-28T06:56:29;11.70;99.90
45012;DHT22;63444;48.148;11.542;2023-04-28T06:58:55;11.80;99.90
45012;DHT22;63444;48.148;11.542;2023-04-28T07:01:21;11.90;99.90
45012;DHT22;63444;48.148;11.542;2023-04-28T07:03:47;12.00;99.90
45012;DHT22;63444;48.148;11.542;2023-04-28T07:06:13;12.10;99.90
45012;DHT22;63444;48.148;11.542;2023-04-28T07:08:40;12.20;99.90
45012;DHT22;63444;48.148;11.542;2023-04-28T07:11:05;12.20;99.90
45012;DHT22;63444;48.148;11.542;2023-04-28T07:13:32;12.20;99.90
45012;DHT22;63444;48.148;11.542;2023-04-28T07:15:59;12.30;99.90
45012;DHT22;63444;48.148;11.542;2023-04-28T07:18:25;12.40;99.90
45012;DHT22;63444;48.148;11.542;2023-04-28T07:20:50;12.40;99.90
45012;DHT22;63444;48.148;11.542;2023-04-28T07:23:16;12.40;99.90
45012;DHT22;63444;48.148;11.542;2023-04-28T07:25:42;12.40;99.90
45012;DHT22;63444;48.148;11.542;2023-04-28T07:28:08;12.50;99.90
45012;DHT22;63444;48.148;11.542;2023-04-28T07:30:34;12.50;99.90
45012;DHT22;63444;48.148;11.542;2023-04-28T07:33:00;12.50;99.90
45012;DHT22;63444;48.148;11.542;2023-04-28T07:35:27;12.50;99.90
45012;DHT22;63444;48.148;11.542;2023-04-28T07:37:52;12.50;99.90
45012;DHT22;63444;48.148;11.542;2023-04-28T07:40:19;12.60;99.90
45012;DHT22;63444;48.148;11.542;2023-04-28T07:42:48;12.50;99.90
45012;DHT22;63444;48.148;11.542;2023-04-28T07:45:14;12.40;99.90
45012;DHT22;63444;48.148;11.542;2023-04-28T07:47:41;12.50;99.90
45012;DHT22;63444;48.148;11.542;2023-04-28T07:50:07;12.50;99.90
45012;DHT22;63444;48.148;11.542;2023-04-28T07:52:33;12.50;99.90
45012;DHT22;63444;48.148;11.542;2023-04-28T07:54:59;12.50;99.90
45012;DHT22;63444;48.148;11.542;2023-04-28T07:57:25;12.50;99.90
45012;DHT22;63444;48.148;11.542;2023-04-28T07:59:51;12.50;99.90
45012;DHT22;63444;48.148;11.542;2023-04-28T08:02:16;12.50;99.90
45012;DHT22;63444;48.148;11.542;2023-04-28T08:04:44;12.50;99.90
45012;DHT22;63444;48.148;11.542;2023-04-28T08:07:10;12.50;99.90
45012;DHT22;63444;48.148;11.542;2023-04-28T08:09:36;12.50;99.90
45012;DHT22;63444;48.148;11.542;2023-04-28T08:12:02;12.40;99.90
45012;DHT22;63444;48.148;11.542;2023-04-28T08:14:27;12.60;99.90
45012;DHT22;63444;48.148;11.542;2023-04-28T08:16:53;12.60;99.90
45012;DHT22;63444;48.148;11.542;2023-04-28T08:19:19;12.50;99.90
45012;DHT22;63444;48.148;11.542;2023-04-28T08:21:46;12.60;99.90
45012;DHT22;63444;48.148;11.542;2023-04-28T08:24:11;12.50;99.90
45012;DHT22;63444;48.148;11.542;2023-04-28T08:26:37;12.60;99.90
45012;DHT22;63444;48.148;11.542;2023-04-28T08:29:03;12.60;99.90
45012;DHT22;63444;48.148;11.542;2023-04-28T08:31:29;12.60;99.90
45012;DHT22;63444;48.148;11.542;2023-04-28T08:33:55;12.50;99.90
45012;DHT22;63444;48.148;11.542;2023-04-28T08:36:20;12.50;99.90
45012;DHT22;63444;48.148;11.542;2023-04-28T08:38:46;12.50;99.90
45012;DHT22;63444;48.148;11.542;2023-04-28T08:41:14;12.50;99.90
45012;DHT22;63444;48.148;11.542;2023-04-28T08:43:40;12.50;99.90
45012;DHT22;63444;48.148;11.542;2023-04-28T08:46:08;12.70;99.90
45012;DHT22;63444;48.148;11.542;2023-04-28T08:48:43;12.60;99.90
45012;DHT22;63444;48.148;11.542;2023-04-28T08:51:21;12.60;99.90
45012;DHT22;63444;48.148;11.542;2023-04-28T08:53:52;12.80;99.90
45012;DHT22;63444;48.148;11.542;2023-04-28T08:56:20;12.60;99.90
45012;DHT22;63444;48.148;11.542;2023-04-28T08:58:50;12.70;99.90
45012;DHT22;63444;48.148;11.542;2023-04-28T09:01:16;12.70;99.90
45012;DHT22;63444;48.148;11.542;2023-04-28T09:03:42;12.70;99.90
45012;DHT22;63444;48.148;11.542;2023-04-28T09:06:08;12.80;99.90
45012;DHT22;63444;48.148;11.542;2023-04-28T09:08:34;12.80;99.90
45012;DHT22;63444;48.148;11.542;2023-04-28T09:11:07;12.80;99.90
45012;DHT22;63444;48.148;11.542;2023-04-28T09:13:33;12.90;99.90
45012;DHT22;63444;48.148;11.542;2023-04-28T09:16:00;12.80;99.90
45012;DHT22;63444;48.148;11.542;2023-04-28T09:18:27;12.90;99.90
45012;DHT22;63444;48.148;11.542;2023-04-28T09:21:02;12.90;99.90
45012;DHT22;63444;48.148;11.542;2023-04-28T09:26:05;12.90;99.90
45012;DHT22;63444;48.148;11.542;2023-04-28T09:28:33;12.90;99.90
45012;DHT22;63444;48.148;11.542;2023-04-28T09:30:59;12.90;99.90
45012;DHT22;63444;48.148;11.542;2023-04-28T09:33:25;12.80;99.90
45012;DHT22;63444;48.148;11.542;2023-04-28T09:35:51;12.90;99.90
45012;DHT22;63444;48.148;11.542;2023-04-28T09:38:18;12.90;99.90
45012;DHT22;63444;48.148;11.542;2023-04-28T09:41:01;12.80;99.90
45012;DHT22;63444;48.148;11.542;2023-04-28T09:43:34;12.80;99.90
45012;DHT22;63444;48.148;11.542;2023-04-28T09:46:01;12.70;99.90
45012;DHT22;63444;48.148;11.542;2023-04-28T09:48:37;12.60;99.90
45012;DHT22;63444;48.148;11.542;2023-04-28T09:51:19;12.60;99.90
45012;DHT22;63444;48.148;11.542;2023-04-28T09:53:45;12.50;99.90
45012;DHT22;63444;48.148;11.542;2023-04-28T09:56:14;12.50;99.90
45012;DHT22;63444;48.148;11.542;2023-04-28T09:58:46;12.50;99.90
45012;DHT22;63444;48.148;11.542;2023-04-28T10:01:12;12.50;99.90
45012;DHT22;63444;48.148;11.542;2023-04-28T10:03:40;12.50;99.90
45012;DHT22;63444;48.148;11.542;2023-04-28T10:06:05;12.50;99.90
45012;DHT22;63444;48.148;11.542;2023-04-28T10:08:32;12.50;99.90
45012;DHT22;63444;48.148;11.542;2023-04-28T10:11:00;12.60;99.90
45012;DHT22;63444;48.148;11.542;2023-04-28T10:13:26;12.50;99.90
45012;DHT22;63444;48.148;11.542;2023-04-28T10:15:52;12.50;99.90
45012;DHT22;63444;48.148;11.542;2023-04-28T10:18:24;12.50;99.90
45012;DHT22;63444;48.148;11.542;2023-04-28T10:20:59;12.50;99.90
45012;DHT22;63444;48.148;11.542;2023-04-28T10:23:51;12.50;99.90
45012;DHT22;63444;48.148;11.542;2023-04-28T10:26:26;12.50;99.90
45012;DHT22;63444;48.148;11.542;2023-04-28T10:28:59;12.50;99.90
45012;DHT22;63444;48.148;11.542;2023-04-28T10:31:25;12.50;99.90
45012;DHT22;63444;48.148;11.542;2023-04-28T10:33:52;12.50;99.90
45012;DHT22;63444;48.148;11.542;2023-04-28T10:36:47;12.60;99.90
45012;DHT22;63444;48.148;11.542;2023-04-28T10:39:26;12.60;99.90
45012;DHT22;63444;48.148;11.542;2023-04-28T10:41:55;12.60;99.90
45012;DHT22;63444;48.148;11.542;2023-04-28T10:47:00;12.50;99.90
45012;DHT22;63444;48.148;11.542;2023-04-28T10:55:30;12.60;99.90
45012;DHT22;63444;48.148;11.542;2023-04-28T11:00:50;12.50;99.90
45012;DHT22;63444;48.148;11.542;2023-04-28T11:06:22;12.50;99.90
45012;DHT22;63444;48.148;11.542;2023-04-28T11:08:51;12.50;99.90
45012;DHT22;63444;48.148;11.542;2023-04-28T11:11:19;12.50;99.90
45012;DHT22;63444;48.148;11.542;2023-04-28T11:13:46;12.60;99.90
45012;DHT22;63444;48.148;11.542;2023-04-28T11:16:18;12.60;99.90
45012;DHT22;63444;48.148;11.542;2023-04-28T11:19:00;12.60;99.90
45012;DHT22;63444;48.148;11.542;2023-04-28T11:21:30;12.60;99.90
45012;DHT22;63444;48.148;11.542;2023-04-28T11:23:57;12.60;99.90
45012;DHT22;63444;48.148;11.542;2023-04-28T11:26:23;12.60;99.90
45012;DHT22;63444;48.148;11.542;2023-04-28T11:28:54;12.70;99.90
45012;DHT22;63444;48.148;11.542;2023-04-28T11:31:22;12.70;99.90
45012;DHT22;63444;48.148;11.542;2023-04-28T11:34:09;12.80;99.90
45012;DHT22;63444;48.148;11.542;2023-04-28T11:36:41;12.90;99.90
45012;DHT22;63444;48.148;11.542;2023-04-28T11:39:11;12.90;99.90
45012;DHT22;63444;48.148;11.542;2023-04-28T11:41:42;12.90;99.90
45012;DHT22;63444;48.148;11.542;2023-04-28T11:44:14;12.90;99.90
45012;DHT22;63444;48.148;11.542;2023-04-28T11:46:48;12.90;99.90
45012;DHT22;63444;48.148;11.542;2023-04-28T11:49:25;12.90;99.90
45012;DHT22;63444;48.148;11.542;2023-04-28T11:51:56;13.00;99.90
45012;DHT22;63444;48.148;11.542;2023-04-28T11:54:24;13.10;99.90
45012;DHT22;63444;48.148;11.542;2023-04-28T11:56:52;13.10;99.90
45012;DHT22;63444;48.148;11.542;2023-04-28T11:59:27;13.10;99.90
45012;DHT22;63444;48.148;11.542;2023-04-28T12:01:56;13.10;99.90
45012;DHT22;63444;48.148;11.542;2023-04-28T12:04:32;13.20;99.90
45012;DHT22;63444;48.148;11.542;2023-04-28T12:09:41;13.20;99.90
45012;DHT22;63444;48.148;11.542;2023-04-28T12:12:09;13.30;99.90
45012;DHT22;63444;48.148;11.542;2023-04-28T12:17:29;13.20;99.90
45012;DHT22;63444;48.148;11.542;2023-04-28T12:19:56;13.10;99.90
45012;DHT22;63444;48.148;11.542;2023-04-28T12:22:24;13.10;99.90
45012;DHT22;63444;48.148;11.542;2023-04-28T12:25:09;13.20;99.90
45012;DHT22;63444;48.148;11.542;2023-04-28T12:27:38;13.20;99.90
45012;DHT22;63444;48.148;11.542;2023-04-28T12:32:46;13.20;99.90
45012;DHT22;63444;48.148;11.542;2023-04-28T12:35:13;13.50;99.90
45012;DHT22;63444;48.148;11.542;2023-04-28T12:37:38;13.50;99.90
45012;DHT22;63444;48.148;11.542;2023-04-28T12:40:06;13.50;99.90
45012;DHT22;63444;48.148;11.542;2023-04-28T12:42:35;13.50;99.90
45012;DHT22;63444;48.148;11.542;2023-04-28T12:45:02;13.50;99.90
45012;DHT22;63444;48.148;11.542;2023-04-28T12:47:28;13.60;99.90
45012;DHT22;63444;48.148;11.542;2023-04-28T12:49:55;13.60;99.90
45012;DHT22;63444;48.148;11.542;2023-04-28T12:52:21;13.70;99.90
45012;DHT22;63444;48.148;11.542;2023-04-28T12:54:47;13.70;99.90
45012;DHT22;63444;48.148;11.542;2023-04-28T12:57:16;13.60;99.90
45012;DHT22;63444;48.148;11.542;2023-04-28T12:59:43;13.60;99.90
45012;DHT22;63444;48.148;11.542;2023-04-28T13:02:09;13.70;99.90
45012;DHT22;63444;48.148;11.542;2023-04-28T13:04:35;13.70;99.90
45012;DHT22;63444;48.148;11.542;2023-04-28T13:07:01;13.70;99.90
45012;DHT22;63444;48.148;11.542;2023-04-28T13:09:27;13.80;99.90
45012;DHT22;63444;48.148;11.542;2023-04-28T13:11:54;13.80;99.90
45012;DHT22;63444;48.148;11.542;2023-04-28T13:14:21;13.90;99.90
45012;DHT22;63444;48.148;11.542;2023-04-28T13:16:46;13.90;99.90
45012;DHT22;63444;48.148;11.542;2023-04-28T13:19:13;14.00;99.90
45012;DHT22;63444;48.148;11.542;2023-04-28T13:21:41;14.10;99.90
45012;DHT22;63444;48.148;11.542;2023-04-28T13:24:07;14.10;99.90
45012;DHT22;63444;48.148;11.542;2023-04-28T13:26:34;14.20;99.90
45012;DHT22;63444;48.148;11.542;2023-04-28T13:29:01;14.00;99.90
45012;DHT22;63444;48.148;11.542;2023-04-28T13:31:28;14.10;99.90
45012;DHT22;63444;48.148;11.542;2023-04-28T13:33:54;14.20;99.90
45012;DHT22;63444;48.148;11.542;2023-04-28T13:36:20;14.20;99.90
45012;DHT22;63444;48.148;11.542;2023-04-28T13:38:46;14.20;99.90
45012;DHT22;63444;48.148;11.542;2023-04-28T13:41:14;14.20;99.90
45012;DHT22;63444;48.148;11.542;2023-04-28T13:43:40;14.30;99.90
45012;DHT22;63444;48.148;11.542;2023-04-28T13:46:06;14.30;99.90
45012;DHT22;63444;48.148;11.542;2023-04-28T13:48:33;14.40;99.90
45012;DHT22;63444;48.148;11.542;2023-04-28T13:51:01;14.60;99.90
45012;DHT22;63444;48.148;11.542;2023-04-28T13:53:26;14.60;99.90
45012;DHT22;63444;48.148;11.542;2023-04-28T13:55:52;14.70;99.90
45012;DHT22;63444;48.148;11.542;2023-04-28T13:58:25;14.80;99.90
45012;DHT22;63444;48.148;11.542;2023-04-28T14:00:52;14.80;99.90
45012;DHT22;63444;48.148;11.542;2023-04-28T14:03:18;14.90;99.90
45012;DHT22;63444;48.148;11.542;2023-04-28T14:05:46;15.00;99.90
45012;DHT22;63444;48.148;11.542;2023-04-28T14:08:12;15.10;99.90
45012;DHT22;63444;48.148;11.542;2023-04-28T14:10:38;15.10;99.90
45012;DHT22;63444;48.148;11.542;2023-04-28T14:13:03;15.20;99.90
45012;DHT22;63444;48.148;11.542;2023-04-28T14:15:29;15.30;99.90
45012;DHT22;63444;48.148;11.542;2023-04-28T14:17:56;15.40;99.90
45012;DHT22;63444;48.148;11.542;2023-04-28T14:20:22;15.40;99.90
45012;DHT22;63444;48.148;11.542;2023-04-28T14:22:47;15.40;99.90
45012;DHT22;63444;48.148;11.542;2023-04-28T14:25:13;15.40;99.90
45012;DHT22;63444;48.148;11.542;2023-04-28T14:27:39;15.40;99.90
45012;DHT22;63444;48.148;11.542;2023-04-28T14:30:05;15.40;99.90
45012;DHT22;63444;48.148;11.542;2023-04-28T14:32:33;15.40;99.90
45012;DHT22;63444;48.148;11.542;2023-04-28T14:35:00;15.40;99.90
45012;DHT22;63444;48.148;11.542;2023-04-28T14:37:29;15.40;99.90
45012;DHT22;63444;48.148;11.542;2023-04-28T14:39:55;15.40;99.90
45012;DHT22;63444;48.148;11.542;2023-04-28T14:42:21;15.40;99.90
45012;DHT22;63444;48.148;11.542;2023-04-28T14:44:47;15.40;99.90
45012;DHT22;63444;48.148;11.542;2023-04-28T14:47:13;15.40;99.90
45012;DHT22;63444;48.148;11.542;2023-04-28T14:49:38;15.40;99.90
45012;DHT22;63444;48.148;11.542;2023-04-28T14:52:04;15.40;99.90
45012;DHT22;63444;48.148;11.542;2023-04-28T14:54:30;15.50;99.90
45012;DHT22;63444;48.148;11.542;2023-04-28T14:56:56;15.50;99.90
45012;DHT22;63444;48.148;11.542;2023-04-28T14:59:23;15.50;99.90
45012;DHT22;63444;48.148;11.542;2023-04-28T15:01:49;15.50;99.90
45012;DHT22;63444;48.148;11.542;2023-04-28T15:04:16;15.30;99.90
45012;DHT22;63444;48.148;11.542;2023-04-28T15:06:42;15.40;99.90
45012;DHT22;63444;48.148;11.542;2023-04-28T15:09:07;15.50;99.90
45012;DHT22;63444;48.148;11.542;2023-04-28T15:11:33;15.50;99.90
45012;DHT22;63444;48.148;11.542;2023-04-28T15:13:58;15.50;99.90
45012;DHT22;63444;48.148;11.542;2023-04-28T15:16:24;15.50;99.90
45012;DHT22;63444;48.148;11.542;2023-04-28T15:18:50;15.50;99.90
45012;DHT22;63444;48.148;11.542;2023-04-28T15:21:15;15.50;99.90
45012;DHT22;63444;48.148;11.542;2023-04-28T15:23:41;15.40;99.90
45012;DHT22;63444;48.148;11.542;2023-04-28T15:26:06;15.30;99.90
45012;DHT22;63444;48.148;11.542;2023-04-28T15:28:35;15.30;99.90
45012;DHT22;63444;48.148;11.542;2023-04-28T15:31:00;15.30;99.90
45012;DHT22;63444;48.148;11.542;2023-04-28T15:33:26;15.20;99.90
45012;DHT22;63444;48.148;11.542;2023-04-28T15:35:52;15.20;99.90
45012;DHT22;63444;48.148;11.542;2023-04-28T15:38:18;15.10;99.90